Darstellungsparameter: Aktuell verwendete Einstellungen:
Skalierung der Graphiken ... ?
xyx+y,   Skalierungsfaktor:      Skalierung: Modus: x, Faktor: 1
Darstellungszeitraum ... ?
Vom - - bis: - -   Zeitraum: 10.09.2020 - 30.09.2020
Min/Max/Avg-Anzeige ... ?
Zeige MMA aktuell
Zeige MMA Monat
Zeige MMA alles
Zeige --A aktuell
Zeige --A Monat
Zeige --A alles
Keine MMA-Anzeige
MMA:
Keine MMA-Graphiken
MMA-Basis: 10.09.2020 - 30.09.2020
Quicknavigation für Darstellung... ?
Tage:      1T, 2T, 3T, 5T -1T -2T -3T -5T +1T +2T +3T +5T
Wochen: 1W, 2W, 3W -1W -2W -3W +1W +2W +3W
Monate: 1M, 3M, 6M -1M -3M -6M +1M +3M +6M
Jahre:    1J, 3J, 5J, 10J -1J -3J -5J -10J +1J +3J +5J +10J
Nutze für die Darstellung ... ?
Originaldaten oder ...
Mittelwerte Minima Maxima auf...
Stundenbasis Tagesbasis Wochenbasis
Monatsbasis Jahresbasis      Datenbasis: Mittelwerte auf Stundenbasis
Darstellen als:
Statistik (Auto) Statistik J:M      Darstellung:
Zur Graphik,    zurück zur Übersicht aller Sensoren.
 
Tabellarische Datenbersicht: ?
 
Sensor: Nr:Datum:Temp:Abs-Feuchte:Windchill:Wind:
Aussen-T/F 1 10-09-2020 00:00:00 20.18333 C 14.59 g/m*3 20.18 C 10.89167 km/h
2 10-09-2020 01:00:00 18.69167 C 14.51 g/m*3 18.69 C 8.6 km/h
3 10-09-2020 02:00:00 17.675 C 13.63 g/m*3 17.68 C 4.55833 km/h
4 10-09-2020 03:00:00 17.175 C 13.05 g/m*3 17.18 C 2.00833 km/h
5 10-09-2020 04:00:00 16.85833 C 12.55 g/m*3 16.86 C 1.06667 km/h
6 10-09-2020 05:00:00 16.56667 C 11.82 g/m*3 16.57 C 2.13333 km/h
7 10-09-2020 06:00:00 16.08333 C 11.56 g/m*3 16.08 C 3.075 km/h
8 10-09-2020 07:00:00 15.475 C 11.38 g/m*3 15.48 C 5.1 km/h
9 10-09-2020 08:00:00 15.35833 C 11.29 g/m*3 15.36 C 2.4 km/h
10 10-09-2020 09:00:00 15.56667 C 11.39 g/m*3 15.57 C 3.875 km/h
11 10-09-2020 10:00:00 15.93333 C 10.87 g/m*3 15.93 C 6.71667 km/h
12 10-09-2020 11:00:00 16.7 C 10.67 g/m*3 16.7 C 5.36667 km/h
13 10-09-2020 12:00:00 17.83333 C 10.28 g/m*3 17.83 C 7.24167 km/h
14 10-09-2020 13:00:00 18.54167 C 9.52 g/m*3 18.54 C 5.9 km/h
15 10-09-2020 14:00:00 19.66667 C 9.96 g/m*3 19.67 C 5.5 km/h
16 10-09-2020 15:00:00 20.84167 C 10.16 g/m*3 20.84 C 7.11667 km/h
17 10-09-2020 16:00:00 22.06667 C 10.31 g/m*3 22.07 C 7.65833 km/h
18 10-09-2020 17:00:00 22.73333 C 10.27 g/m*3 22.73 C 8.61667 km/h
19 10-09-2020 18:00:00 22.45 C 10.24 g/m*3 22.45 C 5.225 km/h
20 10-09-2020 19:00:00 20.80833 C 9.8 g/m*3 20.81 C 2 km/h
21 10-09-2020 20:00:00 17.675 C 9.25 g/m*3 17.68 C 1.33333 km/h
22 10-09-2020 21:00:00 15.60833 C 8.98 g/m*3 15.61 C 3.2 km/h
23 10-09-2020 22:00:00 14.325 C 9.01 g/m*3 14.33 C 0.4 km/h
24 10-09-2020 23:00:00 12.7 C 8.75 g/m*3 12.7 C 0 km/h
25 11-09-2020 00:00:00 12.08333 C 8.78 g/m*3 12.08 C 0 km/h
Sensor: Nr:Datum:Temp:Abs-Feuchte:Windchill:Wind:
Aussen-T/F 26 11-09-2020 01:00:00 11.95 C 8.78 g/m*3 11.95 C 0 km/h
27 11-09-2020 02:00:00 11.05833 C 8.52 g/m*3 11.06 C 0 km/h
28 11-09-2020 03:00:00 10.23333 C 8.35 g/m*3 10.23 C 0 km/h
29 11-09-2020 04:00:00 9.59167 C 8.23 g/m*3 9.59 C 0 km/h
30 11-09-2020 05:00:00 8.95833 C 8.03 g/m*3 8.96 C 0 km/h
31 11-09-2020 06:00:00 8.43333 C 7.87 g/m*3 8.43 C 0 km/h
32 11-09-2020 07:00:00 8.26667 C 7.88 g/m*3 8.27 C 0 km/h
33 11-09-2020 08:00:00 8.625 C 8.13 g/m*3 8.63 C 0 km/h
34 11-09-2020 09:00:00 9.45833 C 8.62 g/m*3 9.46 C 0 km/h
35 11-09-2020 10:00:00 11.20833 C 9.55 g/m*3 11.21 C 0 km/h
36 11-09-2020 11:00:00 14.025 C 10.22 g/m*3 14.03 C 0.26667 km/h
37 11-09-2020 12:00:00 17.6 C 9.97 g/m*3 17.6 C 2.93333 km/h
38 11-09-2020 13:00:00 19.86667 C 9.7 g/m*3 19.87 C 5.35833 km/h
39 11-09-2020 14:00:00 21.15 C 10.06 g/m*3 21.15 C 5.09167 km/h
40 11-09-2020 15:00:00 22.44167 C 10.4 g/m*3 22.44 C 6.45833 km/h
41 11-09-2020 16:00:00 23.58333 C 10.59 g/m*3 23.58 C 8.6 km/h
42 11-09-2020 17:00:00 24.6 C 10.8 g/m*3 24.6 C 6.43333 km/h
43 11-09-2020 18:00:00 24.36667 C 11.27 g/m*3 24.37 C 3.075 km/h
44 11-09-2020 19:00:00 21.425 C 11.31 g/m*3 21.43 C 2.80833 km/h
45 11-09-2020 20:00:00 18.3 C 10.65 g/m*3 18.3 C 4.13333 km/h
46 11-09-2020 21:00:00 16.35833 C 10.47 g/m*3 16.36 C 0.53333 km/h
47 11-09-2020 22:00:00 15.04167 C 10.27 g/m*3 15.04 C 0 km/h
48 11-09-2020 23:00:00 13.93333 C 10.07 g/m*3 13.93 C 0 km/h
49 12-09-2020 00:00:00 13.05 C 9.85 g/m*3 13.05 C 0 km/h
50 12-09-2020 01:00:00 12.525 C 9.71 g/m*3 12.53 C 0 km/h
Sensor: Nr:Datum:Temp:Abs-Feuchte:Windchill:Wind:
Aussen-T/F 51 12-09-2020 02:00:00 11.975 C 9.53 g/m*3 11.98 C 0 km/h
52 12-09-2020 03:00:00 11.475 C 9.35 g/m*3 11.48 C 0 km/h
53 12-09-2020 04:00:00 10.975 C 9.17 g/m*3 10.98 C 0 km/h
54 12-09-2020 05:00:00 10.525 C 9.03 g/m*3 10.53 C 0 km/h
55 12-09-2020 06:00:00 10.225 C 8.9 g/m*3 10.23 C 0 km/h
56 12-09-2020 07:00:00 10.16667 C 8.94 g/m*3 10.17 C 0 km/h
57 12-09-2020 08:00:00 10.9 C 9.46 g/m*3 10.9 C 0 km/h
58 12-09-2020 09:00:00 12.625 C 10.36 g/m*3 12.63 C 0.26667 km/h
59 12-09-2020 10:00:00 14.675 C 10.94 g/m*3 14.68 C 0.13333 km/h
60 12-09-2020 11:00:00 17.25 C 11.71 g/m*3 17.25 C 0 km/h
61 12-09-2020 12:00:00 20.15833 C 12.27 g/m*3 20.16 C 2.80833 km/h
62 12-09-2020 13:00:00 24.425 C 11.76 g/m*3 24.43 C 11.15833 km/h
63 12-09-2020 14:00:00 24.90833 C 12.29 g/m*3 24.91 C 6.85 km/h
64 12-09-2020 15:00:00 25.61667 C 12.43 g/m*3 25.62 C 8.6 km/h
65 12-09-2020 16:00:00 25.75 C 12.36 g/m*3 25.75 C 10.475 km/h
66 12-09-2020 17:00:00 26.14167 C 12.76 g/m*3 26.14 C 10.76667 km/h
67 12-09-2020 18:00:00 25.28333 C 12.84 g/m*3 25.28 C 7.23333 km/h
68 12-09-2020 19:00:00 23.03333 C 12.66 g/m*3 23.03 C 1.46667 km/h
69 12-09-2020 20:00:00 19.79167 C 11.85 g/m*3 19.79 C 1.6 km/h
70 12-09-2020 21:00:00 18.49167 C 10.94 g/m*3 18.49 C 1.20833 km/h
71 12-09-2020 22:00:00 17.16667 C 10.49 g/m*3 17.17 C 0.66667 km/h
72 12-09-2020 23:00:00 15.81667 C 10.29 g/m*3 15.82 C 1.06667 km/h
73 13-09-2020 00:00:00 14.36667 C 9.98 g/m*3 14.37 C 0.26667 km/h
74 13-09-2020 01:00:00 13.05 C 9.73 g/m*3 13.05 C 0.13333 km/h
75 13-09-2020 02:00:00 12.375 C 9.55 g/m*3 12.38 C 0.26667 km/h
Sensor: Nr:Datum:Temp:Abs-Feuchte:Windchill:Wind:
Aussen-T/F 76 13-09-2020 03:00:00 11.73333 C 9.42 g/m*3 11.73 C 0 km/h
77 13-09-2020 04:00:00 11.35 C 9.32 g/m*3 11.35 C 0 km/h
78 13-09-2020 05:00:00 10.84167 C 9.12 g/m*3 10.84 C 0 km/h
79 13-09-2020 06:00:00 10.35 C 8.92 g/m*3 10.35 C 0 km/h
80 13-09-2020 07:00:00 10.15 C 8.91 g/m*3 10.15 C 0 km/h
81 13-09-2020 08:00:00 10.66667 C 9.31 g/m*3 10.67 C 0.26667 km/h
82 13-09-2020 09:00:00 11.60833 C 9.88 g/m*3 11.61 C 0 km/h
83 13-09-2020 10:00:00 13.1 C 10.67 g/m*3 13.1 C 0 km/h
84 13-09-2020 11:00:00 15.53333 C 11.27 g/m*3 15.53 C 0.4 km/h
85 13-09-2020 12:00:00 19.05833 C 11.98 g/m*3 19.06 C 2.26667 km/h
86 13-09-2020 13:00:00 21.825 C 11.99 g/m*3 21.83 C 0.53333 km/h
87 13-09-2020 14:00:00 23.725 C 11.78 g/m*3 23.73 C 2.81667 km/h
88 13-09-2020 15:00:00 25.85833 C 11.17 g/m*3 25.86 C 4.14167 km/h
89 13-09-2020 16:00:00 26.83333 C 11.13 g/m*3 26.83 C 5.1 km/h
90 13-09-2020 17:00:00 28.81667 C 11.8 g/m*3 28.82 C 3.86667 km/h
91 13-09-2020 18:00:00 27.46667 C 13.01 g/m*3 27.47 C 2.66667 km/h
92 13-09-2020 19:00:00 23.69167 C 11.87 g/m*3 23.69 C 3.2 km/h
93 13-09-2020 20:00:00 20.53333 C 11.32 g/m*3 20.53 C 1.86667 km/h
94 13-09-2020 21:00:00 18.25 C 10.95 g/m*3 18.25 C 0 km/h
95 13-09-2020 22:00:00 16.55833 C 10.63 g/m*3 16.56 C 0 km/h
96 13-09-2020 23:00:00 15.175 C 10.44 g/m*3 15.18 C 0 km/h
97 14-09-2020 00:00:00 14.325 C 10.28 g/m*3 14.33 C 0 km/h
98 14-09-2020 01:00:00 13.59167 C 10.02 g/m*3 13.59 C 0 km/h
99 14-09-2020 02:00:00 12.875 C 9.83 g/m*3 12.88 C 0 km/h
100 14-09-2020 03:00:00 12.33333 C 9.69 g/m*3 12.33 C 0 km/h
Sensor: Nr:Datum:Temp:Abs-Feuchte:Windchill:Wind:
Aussen-T/F 101 14-09-2020 04:00:00 11.64167 C 9.45 g/m*3 11.64 C 0 km/h
102 14-09-2020 05:00:00 11.25833 C 9.33 g/m*3 11.26 C 0 km/h
103 14-09-2020 06:00:00 10.83333 C 9.15 g/m*3 10.83 C 0 km/h
104 14-09-2020 07:00:00 10.725 C 9.19 g/m*3 10.73 C 0 km/h
105 14-09-2020 08:00:00 11.15833 C 9.54 g/m*3 11.16 C 0 km/h
106 14-09-2020 09:00:00 12.125 C 10.2 g/m*3 12.13 C 0 km/h
107 14-09-2020 10:00:00 13.875 C 11.28 g/m*3 13.88 C 0 km/h
108 14-09-2020 11:00:00 17.325 C 12.59 g/m*3 17.33 C 0 km/h
109 14-09-2020 12:00:00 21.75833 C 13.7 g/m*3 21.76 C 1.075 km/h
110 14-09-2020 13:00:00 25.95833 C 13.95 g/m*3 25.96 C 3.33333 km/h
111 14-09-2020 14:00:00 28.11667 C 13.34 g/m*3 28.12 C 4.01667 km/h
112 14-09-2020 15:00:00 29.625 C 11.66 g/m*3 29.63 C 7.11667 km/h
113 14-09-2020 16:00:00 29.875 C 12.2 g/m*3 29.88 C 4.675 km/h
114 14-09-2020 17:00:00 29.775 C 14.18 g/m*3 29.78 C 1.46667 km/h
115 14-09-2020 18:00:00 30.61667 C 13.35 g/m*3 30.62 C 3.06667 km/h
116 14-09-2020 19:00:00 25.86667 C 11.8 g/m*3 25.87 C 7.39167 km/h
117 14-09-2020 20:00:00 22.39167 C 11.7 g/m*3 22.39 C 2.54167 km/h
118 14-09-2020 21:00:00 19.975 C 12.17 g/m*3 19.98 C 0 km/h
119 14-09-2020 22:00:00 18.525 C 11.98 g/m*3 18.52 C 0 km/h
120 14-09-2020 23:00:00 17.08333 C 11.72 g/m*3 17.08 C 0 km/h
121 15-09-2020 00:00:00 16.23333 C 11.47 g/m*3 16.23 C 0 km/h
122 15-09-2020 01:00:00 15.45833 C 11.28 g/m*3 15.46 C 0 km/h
123 15-09-2020 02:00:00 14.9 C 11.08 g/m*3 14.9 C 0 km/h
124 15-09-2020 03:00:00 14.15833 C 10.84 g/m*3 14.16 C 0 km/h
125 15-09-2020 04:00:00 13.54167 C 10.59 g/m*3 13.54 C 0 km/h
Sensor: Nr:Datum:Temp:Abs-Feuchte:Windchill:Wind:
Aussen-T/F 126 15-09-2020 05:00:00 13.10833 C 10.5 g/m*3 13.11 C 0 km/h
127 15-09-2020 06:00:00 12.50833 C 10.19 g/m*3 12.51 C 0 km/h
128 15-09-2020 07:00:00 12.2 C 10.11 g/m*3 12.2 C 0 km/h
129 15-09-2020 08:00:00 12.53333 C 10.43 g/m*3 12.53 C 0 km/h
130 15-09-2020 09:00:00 13.69167 C 11.29 g/m*3 13.69 C 0 km/h
131 15-09-2020 10:00:00 15.39167 C 12.46 g/m*3 15.39 C 0 km/h
132 15-09-2020 11:00:00 18.00833 C 13.23 g/m*3 18.01 C 0 km/h
133 15-09-2020 12:00:00 21.76667 C 14.25 g/m*3 21.77 C 0 km/h
134 15-09-2020 13:00:00 25.79167 C 13.96 g/m*3 25.79 C 1.6 km/h
135 15-09-2020 14:00:00 29.24167 C 12.37 g/m*3 29.24 C 4.13333 km/h
136 15-09-2020 15:00:00 30.65833 C 10.87 g/m*3 30.66 C 5.225 km/h
137 15-09-2020 16:00:00 31.5 C 9.92 g/m*3 31.5 C 4.93333 km/h
138 15-09-2020 17:00:00 33.19167 C 10.43 g/m*3 33.19 C 4.53333 km/h
139 15-09-2020 18:00:00 31.875 C 12.58 g/m*3 31.88 C 3.73333 km/h
140 15-09-2020 19:00:00 27.65833 C 11.92 g/m*3 27.66 C 3.33333 km/h
141 15-09-2020 20:00:00 24.3 C 11.82 g/m*3 24.3 C 4.4 km/h
142 15-09-2020 21:00:00 22.05833 C 12.2 g/m*3 22.06 C 0.13333 km/h
143 15-09-2020 22:00:00 20.48333 C 12.41 g/m*3 20.48 C 0 km/h
144 15-09-2020 23:00:00 18.90833 C 12.33 g/m*3 18.91 C 0 km/h
145 16-09-2020 00:00:00 18.13333 C 12.04 g/m*3 18.13 C 0 km/h
146 16-09-2020 01:00:00 17.29167 C 11.8 g/m*3 17.29 C 0 km/h
147 16-09-2020 02:00:00 16.225 C 11.64 g/m*3 16.23 C 0 km/h
148 16-09-2020 03:00:00 15.49167 C 11.43 g/m*3 15.49 C 0 km/h
149 16-09-2020 04:00:00 14.95 C 11.31 g/m*3 14.95 C 0 km/h
150 16-09-2020 05:00:00 14.5 C 11.19 g/m*3 14.5 C 0.4 km/h
Sensor: Nr:Datum:Temp:Abs-Feuchte:Windchill:Wind:
Aussen-T/F 151 16-09-2020 06:00:00 14.25833 C 11.14 g/m*3 14.26 C 0 km/h
152 16-09-2020 07:00:00 14.1 C 11.15 g/m*3 14.1 C 0.26667 km/h
153 16-09-2020 08:00:00 14.51667 C 11.45 g/m*3 14.52 C 0 km/h
154 16-09-2020 09:00:00 15.54167 C 12.13 g/m*3 15.54 C 0 km/h
155 16-09-2020 10:00:00 18.19167 C 13.13 g/m*3 18.19 C 0.26667 km/h
156 16-09-2020 11:00:00 20.775 C 13.49 g/m*3 20.78 C 0.13333 km/h
157 16-09-2020 12:00:00 23.24167 C 14 g/m*3 23.24 C 0 km/h
158 16-09-2020 13:00:00 24.46667 C 14.33 g/m*3 24.47 C 0.13333 km/h
159 16-09-2020 14:00:00 26.5 C 14.56 g/m*3 26.5 C 1.6 km/h
160 16-09-2020 15:00:00 28.38333 C 14.58 g/m*3 28.38 C 1.46667 km/h
161 16-09-2020 16:00:00 30.15 C 12.08 g/m*3 30.15 C 12.35833 km/h
162 16-09-2020 17:00:00 28.55833 C 14.56 g/m*3 28.56 C 13.96667 km/h
163 16-09-2020 18:00:00 26.775 C 15.19 g/m*3 26.78 C 13.56667 km/h
164 16-09-2020 19:00:00 25.28333 C 15.03 g/m*3 25.28 C 5.63333 km/h
165 16-09-2020 20:00:00 22.91667 C 14.49 g/m*3 22.92 C 2.53333 km/h
166 16-09-2020 21:00:00 22.29167 C 14.31 g/m*3 22.29 C 4.69167 km/h
167 16-09-2020 22:00:00 22.30833 C 14.01 g/m*3 22.31 C 7.66667 km/h
168 16-09-2020 23:00:00 21.24167 C 13.41 g/m*3 21.24 C 3.75 km/h
169 17-09-2020 00:00:00 20.75 C 13.12 g/m*3 20.75 C 8.05833 km/h
170 17-09-2020 01:00:00 20.09167 C 12.51 g/m*3 20.09 C 6.71667 km/h
171 17-09-2020 02:00:00 18.75 C 12.07 g/m*3 18.75 C 5.23333 km/h
172 17-09-2020 03:00:00 17.31667 C 11.82 g/m*3 17.32 C 2.8 km/h
173 17-09-2020 04:00:00 17.36667 C 11.98 g/m*3 17.37 C 8.74167 km/h
174 17-09-2020 05:00:00 17.125 C 11.71 g/m*3 17.13 C 7.375 km/h
175 17-09-2020 06:00:00 16.86667 C 11.44 g/m*3 16.87 C 6.15833 km/h
Sensor: Nr:Datum:Temp:Abs-Feuchte:Windchill:Wind:
Aussen-T/F 176 17-09-2020 07:00:00 16.63333 C 11.36 g/m*3 16.63 C 5.89167 km/h
177 17-09-2020 08:00:00 16.08333 C 10.89 g/m*3 16.08 C 9.425 km/h
178 17-09-2020 09:00:00 15.66667 C 10.46 g/m*3 15.67 C 8.06667 km/h
179 17-09-2020 10:00:00 16.05 C 9.52 g/m*3 16.05 C 6.71667 km/h
180 17-09-2020 11:00:00 16.4 C 9.11 g/m*3 16.4 C 10.48333 km/h
181 17-09-2020 12:00:00 17.575 C 9.16 g/m*3 17.58 C 12.76667 km/h
182 17-09-2020 13:00:00 18.81667 C 8.75 g/m*3 18.82 C 14.23333 km/h
183 17-09-2020 14:00:00 20.15833 C 7.94 g/m*3 20.16 C 13.29167 km/h
184 17-09-2020 15:00:00 20.91667 C 7.64 g/m*3 20.92 C 12.5 km/h
185 17-09-2020 16:00:00 21.61667 C 7.28 g/m*3 21.62 C 14.63333 km/h
186 17-09-2020 17:00:00 22.10833 C 7.36 g/m*3 22.11 C 15.3 km/h
187 17-09-2020 18:00:00 21.83333 C 7.63 g/m*3 21.83 C 10.33333 km/h
188 17-09-2020 19:00:00 19.575 C 8.01 g/m*3 19.58 C 2.40833 km/h
189 17-09-2020 20:00:00 15.91667 C 8.08 g/m*3 15.92 C 1.34167 km/h
190 17-09-2020 21:00:00 14.69167 C 8.1 g/m*3 14.69 C 1.6 km/h
191 17-09-2020 22:00:00 14.66667 C 8.24 g/m*3 14.67 C 2.00833 km/h
192 17-09-2020 23:00:00 13.575 C 8.15 g/m*3 13.58 C 1.475 km/h
193 18-09-2020 00:00:00 12.5 C 8.11 g/m*3 12.5 C 0.53333 km/h
194 18-09-2020 01:00:00 12.25833 C 8.1 g/m*3 12.26 C 2.41667 km/h
195 18-09-2020 02:00:00 12.55833 C 7.99 g/m*3 12.56 C 3.46667 km/h
196 18-09-2020 03:00:00 10.925 C 7.75 g/m*3 10.93 C 3.46667 km/h
197 18-09-2020 04:00:00 10.14167 C 7.61 g/m*3 10.14 C 4.13333 km/h
198 18-09-2020 05:00:00 9.55833 C 7.49 g/m*3 9.56 C 1.33333 km/h
199 18-09-2020 06:00:00 9.28333 C 7.45 g/m*3 9.28 C 0.53333 km/h
200 18-09-2020 07:00:00 9.18333 C 7.51 g/m*3 9.18 C 1.86667 km/h
Sensor: Nr:Datum:Temp:Abs-Feuchte:Windchill:Wind:
Aussen-T/F 201 18-09-2020 08:00:00 10.18333 C 7.93 g/m*3 10.18 C 0 km/h
202 18-09-2020 09:00:00 11.2 C 8.2 g/m*3 11.2 C 1.86667 km/h
203 18-09-2020 10:00:00 13.375 C 8.41 g/m*3 13.38 C 5.21667 km/h
204 18-09-2020 11:00:00 16.19167 C 8.82 g/m*3 16.19 C 8.33333 km/h
205 18-09-2020 12:00:00 18.7 C 9.38 g/m*3 18.7 C 8.6 km/h
206 18-09-2020 13:00:00 21.04167 C 10.18 g/m*3 21.04 C 12.36667 km/h
207 18-09-2020 14:00:00 22.58333 C 10.24 g/m*3 22.58 C 13.83333 km/h
208 18-09-2020 15:00:00 23.04167 C 9.98 g/m*3 23.04 C 13.83333 km/h
209 18-09-2020 16:00:00 23.66667 C 9.91 g/m*3 23.67 C 12.1 km/h
210 18-09-2020 17:00:00 24.73333 C 9.77 g/m*3 24.73 C 8.46667 km/h
211 18-09-2020 18:00:00 24.55 C 9.5 g/m*3 24.55 C 6.58333 km/h
212 18-09-2020 19:00:00 21.19167 C 9.55 g/m*3 21.19 C 4.40833 km/h
213 18-09-2020 20:00:00 16.91667 C 9.06 g/m*3 16.92 C 3.86667 km/h
214 18-09-2020 21:00:00 15.46667 C 8.63 g/m*3 15.47 C 5.06667 km/h
215 18-09-2020 22:00:00 14.61667 C 8.02 g/m*3 14.62 C 0.66667 km/h
216 18-09-2020 23:00:00 14.05833 C 7.91 g/m*3 14.06 C 2.8 km/h
217 19-09-2020 00:00:00 13.54167 C 7.74 g/m*3 13.54 C 2.53333 km/h
218 19-09-2020 01:00:00 12.625 C 7.61 g/m*3 12.63 C 4 km/h
219 19-09-2020 02:00:00 11.63333 C 7.47 g/m*3 11.63 C 1.6 km/h
220 19-09-2020 03:00:00 10.375 C 7.31 g/m*3 10.38 C 0.93333 km/h
221 19-09-2020 04:00:00 9.625 C 7.21 g/m*3 9.63 C 0 km/h
222 19-09-2020 05:00:00 8.825 C 7.08 g/m*3 8.82 C 0 km/h
223 19-09-2020 06:00:00 8.175 C 7.04 g/m*3 8.18 C 0 km/h
224 19-09-2020 07:00:00 7.68333 C 7.04 g/m*3 7.68 C 0 km/h
225 19-09-2020 08:00:00 7.94167 C 7.32 g/m*3 7.94 C 0 km/h
Sensor: Nr:Datum:Temp:Abs-Feuchte:Windchill:Wind:
Aussen-T/F 226 19-09-2020 09:00:00 8.91667 C 7.76 g/m*3 8.92 C 0 km/h
227 19-09-2020 10:00:00 11.41667 C 8.33 g/m*3 11.42 C 0.8 km/h
228 19-09-2020 11:00:00 15.09167 C 8.6 g/m*3 15.09 C 2.53333 km/h
229 19-09-2020 12:00:00 19.15 C 8.7 g/m*3 19.15 C 7.93333 km/h
230 19-09-2020 13:00:00 21.125 C 8.61 g/m*3 21.13 C 6.16667 km/h
231 19-09-2020 14:00:00 23.24167 C 8.63 g/m*3 23.24 C 8.46667 km/h
232 19-09-2020 15:00:00 24.33333 C 8.48 g/m*3 24.33 C 8.31667 km/h
233 19-09-2020 16:00:00 25.29167 C 8.19 g/m*3 25.29 C 9.41667 km/h
234 19-09-2020 17:00:00 26.2 C 8.17 g/m*3 26.2 C 8.34167 km/h
235 19-09-2020 18:00:00 26.39167 C 8.38 g/m*3 26.39 C 3.2 km/h
236 19-09-2020 19:00:00 21.7 C 8.12 g/m*3 21.7 C 2.13333 km/h
237 19-09-2020 20:00:00 17.99167 C 7.84 g/m*3 17.99 C 4.4 km/h
238 19-09-2020 21:00:00 16.35833 C 7.92 g/m*3 16.36 C 4.93333 km/h
239 19-09-2020 22:00:00 15.54167 C 8.16 g/m*3 15.54 C 1.86667 km/h
240 19-09-2020 23:00:00 14.425 C 8.17 g/m*3 14.43 C 0 km/h
241 20-09-2020 00:00:00 13.7 C 8.25 g/m*3 13.7 C 0.13333 km/h
242 20-09-2020 01:00:00 12.70833 C 8.27 g/m*3 12.71 C 0 km/h
243 20-09-2020 02:00:00 11.76667 C 7.98 g/m*3 11.77 C 0 km/h
244 20-09-2020 03:00:00 10.6 C 7.73 g/m*3 10.6 C 0 km/h
245 20-09-2020 04:00:00 9.84167 C 7.5 g/m*3 9.84 C 0 km/h
246 20-09-2020 05:00:00 9.49167 C 7.6 g/m*3 9.49 C 0 km/h
247 20-09-2020 06:00:00 8.96667 C 7.46 g/m*3 8.97 C 0 km/h
248 20-09-2020 07:00:00 8.3 C 7.32 g/m*3 8.3 C 0 km/h
249 20-09-2020 08:00:00 8.71667 C 7.73 g/m*3 8.72 C 0 km/h
250 20-09-2020 09:00:00 9.625 C 8.21 g/m*3 9.63 C 0 km/h
Sensor: Nr:Datum:Temp:Abs-Feuchte:Windchill:Wind:
Aussen-T/F 251 20-09-2020 10:00:00 11.55833 C 9 g/m*3 11.56 C 0 km/h
252 20-09-2020 11:00:00 14.05833 C 9.46 g/m*3 14.06 C 0 km/h
253 20-09-2020 12:00:00 18.15833 C 9.75 g/m*3 18.16 C 1.06667 km/h
254 20-09-2020 13:00:00 21.14167 C 9.27 g/m*3 21.14 C 4.53333 km/h
255 20-09-2020 14:00:00 22.81667 C 8.88 g/m*3 22.82 C 3.6 km/h
256 20-09-2020 15:00:00 22.975 C 9.78 g/m*3 22.98 C 1.33333 km/h
257 20-09-2020 16:00:00 22.65 C 9.75 g/m*3 22.65 C 1.06667 km/h
258 20-09-2020 17:00:00 23.95833 C 9.93 g/m*3 23.96 C 1.86667 km/h
259 20-09-2020 18:00:00 21.43333 C 9.47 g/m*3 21.43 C 5.06667 km/h
260 20-09-2020 19:00:00 18.625 C 8.91 g/m*3 18.63 C 3.6 km/h
261 20-09-2020 20:00:00 15.78333 C 8.29 g/m*3 15.78 C 1.33333 km/h
262 20-09-2020 21:00:00 14.3 C 8.13 g/m*3 14.3 C 0 km/h
263 20-09-2020 22:00:00 13.075 C 8.3 g/m*3 13.08 C 0 km/h
264 20-09-2020 23:00:00 11.68333 C 8.05 g/m*3 11.68 C 0 km/h
265 21-09-2020 00:00:00 10.94167 C 7.88 g/m*3 10.94 C 0 km/h
266 21-09-2020 01:00:00 10.25833 C 7.8 g/m*3 10.26 C 0 km/h
267 21-09-2020 02:00:00 9.54167 C 7.67 g/m*3 9.54 C 0 km/h
268 21-09-2020 03:00:00 9.03333 C 7.62 g/m*3 9.03 C 0 km/h
269 21-09-2020 04:00:00 8.55 C 7.54 g/m*3 8.55 C 0 km/h
270 21-09-2020 05:00:00 8.15 C 7.44 g/m*3 8.15 C 0 km/h
271 21-09-2020 06:00:00 7.79167 C 7.35 g/m*3 7.79 C 0 km/h
272 21-09-2020 07:00:00 7.34167 C 7.22 g/m*3 7.34 C 0 km/h
273 21-09-2020 08:00:00 7.525 C 7.4 g/m*3 7.53 C 0 km/h
274 21-09-2020 09:00:00 8.475 C 7.84 g/m*3 8.48 C 0 km/h
275 21-09-2020 10:00:00 10.075 C 8.54 g/m*3 10.07 C 0 km/h
Sensor: Nr:Datum:Temp:Abs-Feuchte:Windchill:Wind:
Aussen-T/F 276 21-09-2020 11:00:00 13.05833 C 9.27 g/m*3 13.06 C 0 km/h
277 21-09-2020 12:00:00 17.375 C 10.1 g/m*3 17.38 C 0 km/h
278 21-09-2020 13:00:00 20.58333 C 9.88 g/m*3 20.58 C 1.73333 km/h
279 21-09-2020 14:00:00 23.44167 C 9.01 g/m*3 23.44 C 7.78333 km/h
280 21-09-2020 15:00:00 24.26667 C 8.56 g/m*3 24.27 C 5.21667 km/h
281 21-09-2020 16:00:00 24.63333 C 8.44 g/m*3 24.63 C 5.9 km/h
282 21-09-2020 17:00:00 26.25833 C 8.64 g/m*3 26.26 C 2.93333 km/h
283 21-09-2020 18:00:00 25.7 C 9.36 g/m*3 25.7 C 3.06667 km/h
284 21-09-2020 19:00:00 21.13333 C 8.71 g/m*3 21.13 C 5.73333 km/h
285 21-09-2020 20:00:00 17.55833 C 8.53 g/m*3 17.56 C 0.93333 km/h
286 21-09-2020 21:00:00 15.46667 C 8.53 g/m*3 15.47 C 0 km/h
287 21-09-2020 22:00:00 13.98333 C 8.46 g/m*3 13.98 C 0 km/h
288 21-09-2020 23:00:00 12.9 C 8.51 g/m*3 12.9 C 0 km/h
289 22-09-2020 00:00:00 11.80833 C 8.37 g/m*3 11.81 C 0 km/h
290 22-09-2020 01:00:00 11.33333 C 8.3 g/m*3 11.33 C 0 km/h
291 22-09-2020 02:00:00 10.66667 C 8.11 g/m*3 10.67 C 0 km/h
292 22-09-2020 03:00:00 9.80833 C 7.97 g/m*3 9.81 C 0 km/h
293 22-09-2020 04:00:00 9.34167 C 7.89 g/m*3 9.34 C 0 km/h
294 22-09-2020 05:00:00 8.98333 C 7.85 g/m*3 8.98 C 0 km/h
295 22-09-2020 06:00:00 8.51667 C 7.72 g/m*3 8.52 C 0 km/h
296 22-09-2020 07:00:00 8.2 C 7.65 g/m*3 8.2 C 0 km/h
297 22-09-2020 08:00:00 8.54167 C 7.93 g/m*3 8.54 C 0 km/h
298 22-09-2020 09:00:00 9.45833 C 8.44 g/m*3 9.46 C 0 km/h
299 22-09-2020 10:00:00 11.10833 C 9.2 g/m*3 11.11 C 0 km/h
300 22-09-2020 11:00:00 14.18333 C 10.12 g/m*3 14.18 C 0 km/h
Sensor: Nr:Datum:Temp:Abs-Feuchte:Windchill:Wind:
Aussen-T/F 301 22-09-2020 12:00:00 18.30833 C 11.09 g/m*3 18.31 C 0.13333 km/h
302 22-09-2020 13:00:00 22.025 C 10.46 g/m*3 22.03 C 4.29167 km/h
303 22-09-2020 14:00:00 25.39167 C 9.49 g/m*3 25.39 C 11.15833 km/h
304 22-09-2020 15:00:00 26.09167 C 9.07 g/m*3 26.09 C 11.025 km/h
305 22-09-2020 16:00:00 26.51667 C 8.75 g/m*3 26.52 C 11.3 km/h
306 22-09-2020 17:00:00 27.45833 C 9.39 g/m*3 27.46 C 8.85833 km/h
307 22-09-2020 18:00:00 27.34167 C 10.25 g/m*3 27.34 C 4.54167 km/h
308 22-09-2020 19:00:00 22.64167 C 10.15 g/m*3 22.64 C 6.14167 km/h
309 22-09-2020 20:00:00 19.275 C 9.9 g/m*3 19.27 C 4.26667 km/h
310 22-09-2020 21:00:00 17.68333 C 9.7 g/m*3 17.68 C 0.66667 km/h
311 22-09-2020 22:00:00 16.43333 C 9.49 g/m*3 16.43 C 0.66667 km/h
312 22-09-2020 23:00:00 15.40833 C 9.31 g/m*3 15.41 C 0.66667 km/h
313 23-09-2020 00:00:00 14.45833 C 9.15 g/m*3 14.46 C 0.13333 km/h
314 23-09-2020 01:00:00 14.04167 C 9.23 g/m*3 14.04 C 0.53333 km/h
315 23-09-2020 02:00:00 14.49167 C 9.4 g/m*3 14.49 C 0.93333 km/h
316 23-09-2020 03:00:00 13.925 C 9.36 g/m*3 13.93 C 0 km/h
317 23-09-2020 04:00:00 14.06667 C 9.45 g/m*3 14.07 C 0 km/h
318 23-09-2020 05:00:00 12.775 C 8.94 g/m*3 12.78 C 0.13333 km/h
319 23-09-2020 06:00:00 12.125 C 8.85 g/m*3 12.13 C 0.4 km/h
320 23-09-2020 07:00:00 13.225 C 9.12 g/m*3 13.23 C 1.46667 km/h
321 23-09-2020 08:00:00 14.025 C 9.27 g/m*3 14.03 C 1.33333 km/h
322 23-09-2020 09:00:00 14.29167 C 9.33 g/m*3 14.29 C 3.89167 km/h
323 23-09-2020 10:00:00 17.35833 C 9.01 g/m*3 17.36 C 11.16667 km/h
324 23-09-2020 11:00:00 19.13333 C 9.62 g/m*3 19.13 C 10.35833 km/h
325 23-09-2020 12:00:00 20.29167 C 10.55 g/m*3 20.29 C 14.1 km/h
Sensor: Nr:Datum:Temp:Abs-Feuchte:Windchill:Wind:
Aussen-T/F 326 23-09-2020 13:00:00 21.65 C 10.84 g/m*3 21.65 C 11.41667 km/h
327 23-09-2020 14:00:00 23.03333 C 11.07 g/m*3 23.03 C 12.1 km/h
328 23-09-2020 15:00:00 23.40833 C 11.2 g/m*3 23.41 C 11.56667 km/h
329 23-09-2020 16:00:00 23.63333 C 11.24 g/m*3 23.63 C 11.29167 km/h
330 23-09-2020 17:00:00 23.78333 C 11.28 g/m*3 23.78 C 9.93333 km/h
331 23-09-2020 18:00:00 22.60833 C 11.1 g/m*3 22.61 C 5.225 km/h
332 23-09-2020 19:00:00 19.48333 C 11.16 g/m*3 19.48 C 1.46667 km/h
333 23-09-2020 20:00:00 17.35833 C 11.11 g/m*3 17.36 C 1.33333 km/h
334 23-09-2020 21:00:00 17.51667 C 11.47 g/m*3 17.52 C 2.54167 km/h
335 23-09-2020 22:00:00 17.64167 C 11.64 g/m*3 17.64 C 0.53333 km/h
336 23-09-2020 23:00:00 17.50833 C 11.75 g/m*3 17.51 C 1.6 km/h
337 24-09-2020 00:00:00 17.73333 C 11.75 g/m*3 17.73 C 4.15833 km/h
338 24-09-2020 01:00:00 18.28333 C 11.99 g/m*3 18.28 C 4.825 km/h
339 24-09-2020 02:00:00 17.56667 C 12.81 g/m*3 17.57 C 4.825 km/h
340 24-09-2020 03:00:00 16.18333 C 12.66 g/m*3 16.18 C 1.2 km/h
341 24-09-2020 04:00:00 16.03333 C 12.81 g/m*3 16.03 C 1.86667 km/h
342 24-09-2020 05:00:00 15.95 C 12.75 g/m*3 15.95 C 6.975 km/h
343 24-09-2020 06:00:00 14.54167 C 10.71 g/m*3 14.54 C 10.08333 km/h
344 24-09-2020 07:00:00 12.025 C 9.55 g/m*3 12.03 C 6.56667 km/h
345 24-09-2020 08:00:00 12.25 C 9.62 g/m*3 12.25 C 8.05833 km/h
346 24-09-2020 09:00:00 12.63333 C 9.51 g/m*3 12.63 C 10.88333 km/h
347 24-09-2020 10:00:00 13.7 C 9.32 g/m*3 13.7 C 12.23333 km/h
348 24-09-2020 11:00:00 14.74167 C 9.1 g/m*3 14.74 C 12.63333 km/h
349 24-09-2020 12:00:00 16.88333 C 9.21 g/m*3 16.88 C 11.16667 km/h
350 24-09-2020 13:00:00 17.73333 C 9.06 g/m*3 17.73 C 15.16667 km/h
Sensor: Nr:Datum:Temp:Abs-Feuchte:Windchill:Wind:
Aussen-T/F 351 24-09-2020 14:00:00 18.99167 C 9.08 g/m*3 18.99 C 14.36667 km/h
352 24-09-2020 15:00:00 19.575 C 9.29 g/m*3 19.58 C 9.80833 km/h
353 24-09-2020 16:00:00 19.71667 C 9.49 g/m*3 19.72 C 7.25833 km/h
354 24-09-2020 17:00:00 19.775 C 9.88 g/m*3 19.77 C 4.53333 km/h
355 24-09-2020 18:00:00 18.85833 C 10.63 g/m*3 18.86 C 2.14167 km/h
356 24-09-2020 19:00:00 17.05 C 11.02 g/m*3 17.05 C 2.26667 km/h
357 24-09-2020 20:00:00 16.075 C 10.86 g/m*3 16.08 C 2.26667 km/h
358 24-09-2020 21:00:00 15.05 C 10.64 g/m*3 15.05 C 1.2 km/h
359 24-09-2020 22:00:00 14.40833 C 10.66 g/m*3 14.41 C 0.93333 km/h
360 24-09-2020 23:00:00 13.76667 C 10.49 g/m*3 13.77 C 0.93333 km/h
361 25-09-2020 00:00:00 13.675 C 10.62 g/m*3 13.68 C 0.13333 km/h
362 25-09-2020 01:00:00 13.925 C 10.79 g/m*3 13.93 C 0.93333 km/h
363 25-09-2020 02:00:00 13.73333 C 10.52 g/m*3 13.73 C 10.05 km/h
364 25-09-2020 03:00:00 12.15 C 9.83 g/m*3 12.15 C 8.59167 km/h
365 25-09-2020 04:00:00 11.275 C 9.42 g/m*3 11.28 C 3.46667 km/h
366 25-09-2020 05:00:00 10.76667 C 9.2 g/m*3 10.77 C 4.40833 km/h
367 25-09-2020 06:00:00 10.50833 C 8.98 g/m*3 10.16 C 5.61667 km/h
368 25-09-2020 07:00:00 9.875 C 8.53 g/m*3 9.88 C 4.55833 km/h
369 25-09-2020 08:00:00 9.525 C 8.33 g/m*3 9.53 C 2.40833 km/h
370 25-09-2020 09:00:00 10.25833 C 8.22 g/m*3 10.26 C 2.8 km/h
371 25-09-2020 10:00:00 11.35 C 8.39 g/m*3 11.35 C 3.875 km/h
372 25-09-2020 11:00:00 12.40833 C 8.49 g/m*3 12.41 C 8.6 km/h
373 25-09-2020 12:00:00 13.21667 C 8.35 g/m*3 13.22 C 11.96667 km/h
374 25-09-2020 13:00:00 13.54167 C 8.25 g/m*3 13.54 C 10.88333 km/h
375 25-09-2020 14:00:00 13.03333 C 8.97 g/m*3 13.03 C 3.61667 km/h
Sensor: Nr:Datum:Temp:Abs-Feuchte:Windchill:Wind:
Aussen-T/F 376 25-09-2020 15:00:00 13.65 C 9.26 g/m*3 13.65 C 3.6 km/h
377 25-09-2020 16:00:00 14.23333 C 9.1 g/m*3 14.23 C 7.125 km/h
378 25-09-2020 17:00:00 14.25 C 8.79 g/m*3 14.25 C 7.525 km/h
379 25-09-2020 18:00:00 12.89167 C 8.7 g/m*3 12.89 C 9.93333 km/h
380 25-09-2020 19:00:00 11.88333 C 8.54 g/m*3 11.88 C 6.3 km/h
381 25-09-2020 20:00:00 11.75833 C 8.49 g/m*3 11.76 C 6.7 km/h
382 25-09-2020 21:00:00 11.53333 C 8.06 g/m*3 11.53 C 7.50833 km/h
383 25-09-2020 22:00:00 11.425 C 8.07 g/m*3 11.43 C 8.74167 km/h
384 25-09-2020 23:00:00 11.20833 C 8.14 g/m*3 11.21 C 10.35833 km/h
385 26-09-2020 00:00:00 10.7 C 8.06 g/m*3 8.94 C 13.7 km/h
386 26-09-2020 01:00:00 10.61667 C 7.93 g/m*3 9.05 C 12.1 km/h
387 26-09-2020 02:00:00 10.5 C 7.9 g/m*3 9.04 C 11.15833 km/h
388 26-09-2020 03:00:00 10.05 C 7.82 g/m*3 7.8 C 16.5 km/h
389 26-09-2020 04:00:00 9.81667 C 7.59 g/m*3 7.28 C 18.63333 km/h
390 26-09-2020 05:00:00 9.73333 C 7.39 g/m*3 7.07 C 19.7 km/h
391 26-09-2020 06:00:00 9.65833 C 7.53 g/m*3 6.92 C 20.23333 km/h
392 26-09-2020 07:00:00 9.425 C 7.79 g/m*3 7.37 C 13.7 km/h
393 26-09-2020 08:00:00 9.31667 C 8.14 g/m*3 7.78 C 10.20833 km/h
394 26-09-2020 09:00:00 9.9 C 8.56 g/m*3 8.79 C 8.46667 km/h
395 26-09-2020 10:00:00 10.91667 C 8.9 g/m*3 9.85 C 9.275 km/h
396 26-09-2020 11:00:00 11.58333 C 9.14 g/m*3 11.58 C 7.38333 km/h
397 26-09-2020 12:00:00 12.04167 C 9.06 g/m*3 12.04 C 11.55 km/h
398 26-09-2020 13:00:00 11.48333 C 9.45 g/m*3 11.48 C 5.35833 km/h
399 26-09-2020 14:00:00 11.69167 C 9.47 g/m*3 11.69 C 10.74167 km/h
400 26-09-2020 15:00:00 11.375 C 9.32 g/m*3 11.38 C 11.69167 km/h
Sensor: Nr:Datum:Temp:Abs-Feuchte:Windchill:Wind:
Aussen-T/F 401 26-09-2020 16:00:00 10.94167 C 9.01 g/m*3 9.5 C 11.68333 km/h
402 26-09-2020 17:00:00 10.9 C 8.97 g/m*3 9.85 C 9.15833 km/h
403 26-09-2020 18:00:00 10.81667 C 9.08 g/m*3 10.55 C 5.48333 km/h
404 26-09-2020 19:00:00 10.68333 C 9.04 g/m*3 10.68 C 4.95833 km/h
405 26-09-2020 20:00:00 10.36667 C 8.98 g/m*3 10.37 C 4.54167 km/h
406 26-09-2020 21:00:00 10.2 C 8.99 g/m*3 10.2 C 2.26667 km/h
407 26-09-2020 22:00:00 10.075 C 8.97 g/m*3 10.07 C 2.275 km/h
408 26-09-2020 23:00:00 9.85 C 8.84 g/m*3 9.85 C 3.2 km/h
409 27-09-2020 00:00:00 9.375 C 8.58 g/m*3 9.38 C 4.66667 km/h
410 27-09-2020 01:00:00 8.88333 C 8.35 g/m*3 7.77 C 7.65 km/h
411 27-09-2020 02:00:00 8.91667 C 8.42 g/m*3 7.55 C 8.85833 km/h
412 27-09-2020 03:00:00 9.325 C 8.64 g/m*3 8.92 C 5.225 km/h
413 27-09-2020 04:00:00 9.50833 C 8.74 g/m*3 9.51 C 1.74167 km/h
414 27-09-2020 05:00:00 9.6 C 8.79 g/m*3 9.6 C 0.8 km/h
415 27-09-2020 06:00:00 9.6 C 8.79 g/m*3 9.6 C 0.26667 km/h
416 27-09-2020 07:00:00 9.6 C 8.79 g/m*3 9.6 C 0.26667 km/h
417 27-09-2020 08:00:00 9.8 C 8.96 g/m*3 9.8 C 1.46667 km/h
418 27-09-2020 09:00:00 10.59167 C 9.43 g/m*3 10.59 C 2.13333 km/h
419 27-09-2020 10:00:00 11.24167 C 9.75 g/m*3 11.24 C 2 km/h
420 27-09-2020 11:00:00 12.025 C 9.89 g/m*3 12.03 C 5.075 km/h
421 27-09-2020 12:00:00 12.61667 C 9.85 g/m*3 12.62 C 5.48333 km/h
422 27-09-2020 13:00:00 13.30833 C 10 g/m*3 13.31 C 6.71667 km/h
423 27-09-2020 14:00:00 13.69167 C 9.59 g/m*3 13.69 C 6.41667 km/h
424 27-09-2020 15:00:00 13.39167 C 9.35 g/m*3 13.39 C 3.2 km/h
425 27-09-2020 16:00:00 13.13333 C 9.5 g/m*3 13.13 C 1.6 km/h
Sensor: Nr:Datum:Temp:Abs-Feuchte:Windchill:Wind:
Aussen-T/F 426 27-09-2020 17:00:00 13.1 C 9.8 g/m*3 13.1 C 0 km/h
427 27-09-2020 18:00:00 12.39167 C 9.7 g/m*3 12.39 C 2.13333 km/h
428 27-09-2020 19:00:00 11.33333 C 9.22 g/m*3 11.33 C 2.4 km/h
429 27-09-2020 20:00:00 10.89167 C 9.12 g/m*3 10.89 C 2 km/h
430 27-09-2020 21:00:00 10.74167 C 9.14 g/m*3 10.74 C 1.46667 km/h
431 27-09-2020 22:00:00 10.65833 C 9.11 g/m*3 10.66 C 0.26667 km/h
432 27-09-2020 23:00:00 10.44167 C 9.06 g/m*3 10.44 C 1.46667 km/h
433 28-09-2020 00:00:00 10.40833 C 9.06 g/m*3 10.41 C 1.33333 km/h
434 28-09-2020 01:00:00 10.5 C 9.12 g/m*3 10.5 C 0.66667 km/h
435 28-09-2020 02:00:00 10.39167 C 9.05 g/m*3 10.39 C 1.33333 km/h
436 28-09-2020 03:00:00 10.20833 C 8.97 g/m*3 10.21 C 0 km/h
437 28-09-2020 04:00:00 10.15833 C 8.98 g/m*3 10.16 C 0.4 km/h
438 28-09-2020 05:00:00 10.11667 C 8.94 g/m*3 10.12 C 0.4 km/h
439 28-09-2020 06:00:00 10.125 C 8.93 g/m*3 10.13 C 0.66667 km/h
440 28-09-2020 07:00:00 10.075 C 8.86 g/m*3 10.07 C 0.26667 km/h
441 28-09-2020 08:00:00 10.29167 C 9 g/m*3 10.29 C 0 km/h
442 28-09-2020 09:00:00 10.79167 C 9.07 g/m*3 10.79 C 0.4 km/h
443 28-09-2020 10:00:00 11.89167 C 9.08 g/m*3 11.89 C 2.66667 km/h
444 28-09-2020 11:00:00 12.98333 C 9.14 g/m*3 12.98 C 4.95 km/h
445 28-09-2020 12:00:00 13.725 C 9.11 g/m*3 13.73 C 4.41667 km/h
446 28-09-2020 13:00:00 13.81667 C 9.36 g/m*3 13.82 C 5.775 km/h
447 28-09-2020 14:00:00 14.01667 C 9.42 g/m*3 14.02 C 4.025 km/h
448 28-09-2020 15:00:00 14.24167 C 9.13 g/m*3 14.24 C 4.95833 km/h
449 28-09-2020 16:00:00 14 C 9.14 g/m*3 14 C 6.7 km/h
450 28-09-2020 17:00:00 13.55833 C 9.11 g/m*3 13.56 C 6.025 km/h
Sensor: Nr:Datum:Temp:Abs-Feuchte:Windchill:Wind:
Aussen-T/F 451 28-09-2020 18:00:00 13.25 C 9.24 g/m*3 13.25 C 2 km/h
452 28-09-2020 19:00:00 12.45833 C 9.3 g/m*3 12.46 C 1.6 km/h
453 28-09-2020 20:00:00 11.85833 C 9.08 g/m*3 11.86 C 0.8 km/h
454 28-09-2020 21:00:00 10.86667 C 8.74 g/m*3 10.87 C 0.53333 km/h
455 28-09-2020 22:00:00 10.80833 C 8.99 g/m*3 10.81 C 0 km/h
456 28-09-2020 23:00:00 10.95 C 9.15 g/m*3 10.95 C 0.13333 km/h
457 29-09-2020 00:00:00 10.975 C 9.19 g/m*3 10.98 C 0.26667 km/h
458 29-09-2020 01:00:00 11.025 C 9.22 g/m*3 11.03 C 0.4 km/h
459 29-09-2020 02:00:00 11.09167 C 9.26 g/m*3 11.09 C 0 km/h
460 29-09-2020 03:00:00 11.13333 C 9.29 g/m*3 11.13 C 0 km/h
461 29-09-2020 04:00:00 11.2 C 9.36 g/m*3 11.2 C 0 km/h
462 29-09-2020 05:00:00 11.3 C 9.49 g/m*3 11.3 C 0 km/h
463 29-09-2020 06:00:00 11.4 C 9.55 g/m*3 11.4 C 0 km/h
464 29-09-2020 07:00:00 11.59167 C 9.74 g/m*3 11.59 C 0 km/h
465 29-09-2020 08:00:00 11.81667 C 9.96 g/m*3 11.82 C 0 km/h
466 29-09-2020 09:00:00 12.2 C 10.28 g/m*3 12.2 C 1.6 km/h
467 29-09-2020 10:00:00 12.65 C 10.61 g/m*3 12.65 C 3.46667 km/h
468 29-09-2020 11:00:00 13.18333 C 10.92 g/m*3 13.18 C 3.2 km/h
469 29-09-2020 12:00:00 13.725 C 11.23 g/m*3 13.73 C 5.06667 km/h
470 29-09-2020 13:00:00 14.1 C 11.38 g/m*3 14.1 C 6.01667 km/h
471 29-09-2020 14:00:00 14.30833 C 11.62 g/m*3 14.31 C 6.43333 km/h
472 29-09-2020 15:00:00 14.26667 C 11.54 g/m*3 14.27 C 7.93333 km/h
473 29-09-2020 16:00:00 13.43333 C 10.98 g/m*3 13.43 C 5.21667 km/h
474 29-09-2020 17:00:00 13.15833 C 10.88 g/m*3 13.16 C 2.14167 km/h
475 29-09-2020 18:00:00 13.21667 C 10.92 g/m*3 13.22 C 1.86667 km/h
Sensor: Nr:Datum:Temp:Abs-Feuchte:Windchill:Wind:
Aussen-T/F 476 29-09-2020 19:00:00 12.425 C 10.4 g/m*3 12.43 C 4.54167 km/h
477 29-09-2020 20:00:00 11.55 C 9.84 g/m*3 11.55 C 0.13333 km/h
478 29-09-2020 21:00:00 10.70833 C 9.34 g/m*3 10.71 C 0 km/h
479 29-09-2020 22:00:00 10.24167 C 9.15 g/m*3 10.24 C 0 km/h
480 29-09-2020 23:00:00 10.5 C 9.34 g/m*3 10.5 C 0 km/h
481 30-09-2020 00:00:00 10.88333 C 9.64 g/m*3 10.88 C 0 km/h
482 30-09-2020 01:00:00 11.05833 C 9.74 g/m*3 11.06 C 0 km/h
483 30-09-2020 02:00:00 11.2 C 9.83 g/m*3 11.2 C 0 km/h
484 30-09-2020 03:00:00 11.49167 C 10.01 g/m*3 11.49 C 0 km/h
485 30-09-2020 04:00:00 11.75833 C 10.18 g/m*3 11.76 C 0 km/h
486 30-09-2020 05:00:00 11.90833 C 10.28 g/m*3 11.91 C 0 km/h
487 30-09-2020 06:00:00 12.11667 C 10.41 g/m*3 12.12 C 0 km/h
488 30-09-2020 07:00:00 12.23333 C 10.49 g/m*3 12.23 C 0 km/h
489 30-09-2020 08:00:00 12.65 C 10.76 g/m*3 12.65 C 0 km/h
490 30-09-2020 09:00:00 13.59167 C 11.44 g/m*3 13.59 C 0 km/h
491 30-09-2020 10:00:00 14.675 C 12.26 g/m*3 14.68 C 2.13333 km/h
492 30-09-2020 11:00:00 15.65833 C 12.76 g/m*3 15.66 C 4.81667 km/h
493 30-09-2020 12:00:00 16.64167 C 12.95 g/m*3 16.64 C 3.21667 km/h
494 30-09-2020 13:00:00 16.89167 C 12.81 g/m*3 16.89 C 1.6 km/h
495 30-09-2020 14:00:00 17.64167 C 12.94 g/m*3 17.64 C 3.46667 km/h
496 30-09-2020 15:00:00 18.15 C 12.88 g/m*3 18.15 C 4.66667 km/h
497 30-09-2020 16:00:00 17.9 C 12.66 g/m*3 17.9 C 3.86667 km/h
498 30-09-2020 17:00:00 18.00833 C 12.6 g/m*3 18.01 C 3.46667 km/h
499 30-09-2020 18:00:00 17.05 C 12.31 g/m*3 17.05 C 1.73333 km/h
500 30-09-2020 19:00:00 15.55833 C 12.03 g/m*3 15.56 C 0.13333 km/h
Sensor: Nr:Datum:Temp:Abs-Feuchte:Windchill:Wind:
Aussen-T/F 501 30-09-2020 20:00:00 14.54167 C 11.43 g/m*3 14.54 C 1.6 km/h
502 30-09-2020 21:00:00 13.25833 C 10.69 g/m*3 13.26 C 1.2 km/h
503 30-09-2020 22:00:00 12.175 C 10.12 g/m*3 12.18 C 2.13333 km/h
504 30-09-2020 23:00:00 11.55 C 9.84 g/m*3 11.55 C 1.73333 km/h

Maximal/Minimal-Werte vom 10.09.2020 - 30.09.2020

Sensor Min Max Avg
Temp
(Aussen-T/F)
7.3 °C
21-09-2020  07:15:00
33.7 °C
15-09-2020  17:35:00
15.61 °C
Abs-Feuchte
(Aussen-T/F)
7.04 g/m*3
19-09-2020  06:00:00
15.19 g/m*3
16-09-2020  18:00:00
9.89 g/m*3
Windchill
(Aussen-T/F)
6.92 C
26-09-2020  06:00:00
33.19 C
15-09-2020  17:00:00
15.53 C

Die Daten stammen von einer Davis Vantage Pro 2 Wetter-Station und werden unter Linux mit der Software wview2wettercgi und aufbereitet. Alle Angaben erfolgen ohne Gewähr für ihre Vollständigkeit oder Richtigkeit.
Kontakt: Rainer Krienke krienke@uni-koblenz.de . Meine Webseiten an der Uni Koblenz oder privat.
Version: $Revision: 0.78 $